createdAt,value
2023-05-14T00:00:19.466Z,11.54
2023-05-14T00:03:07.277Z,11.51
2023-05-14T00:05:35.463Z,11.51
2023-05-14T00:08:03.185Z,11.49
2023-05-14T00:10:31.046Z,11.49
2023-05-14T00:12:58.929Z,11.49
2023-05-14T00:15:26.924Z,11.48
2023-05-14T00:17:54.974Z,11.48
2023-05-14T00:20:23.107Z,11.48
2023-05-14T00:22:51.501Z,11.47
2023-05-14T00:25:19.285Z,11.47
2023-05-14T00:27:47.168Z,11.47
2023-05-14T00:30:15.126Z,11.47
2023-05-14T00:32:43.782Z,11.46
2023-05-14T00:35:11.595Z,11.44
2023-05-14T00:37:39.375Z,11.44
2023-05-14T00:40:08.662Z,11.43
2023-05-14T00:42:36.743Z,11.41
2023-05-14T00:45:04.801Z,11.40
2023-05-14T00:47:35.030Z,11.38
2023-05-14T00:50:03.753Z,11.35
2023-05-14T00:52:31.492Z,11.34
2023-05-14T00:55:00.615Z,11.32
2023-05-14T00:57:28.448Z,11.29
2023-05-14T00:59:56.287Z,11.28
2023-05-14T01:02:24.151Z,11.28
2023-05-14T01:04:52.632Z,11.29
2023-05-14T01:07:40.484Z,11.27
2023-05-14T01:10:11.952Z,11.25
2023-05-14T01:13:02.633Z,11.24
2023-05-14T01:15:34.755Z,11.24
2023-05-14T01:18:08.159Z,11.24
2023-05-14T01:20:36.615Z,11.22
2023-05-14T01:23:04.501Z,11.20
2023-05-14T01:25:32.704Z,11.18
2023-05-14T01:28:09.025Z,11.17
2023-05-14T01:30:58.680Z,11.16
2023-05-14T01:33:27.543Z,11.13
2023-05-14T01:35:55.992Z,11.11
2023-05-14T01:38:24.339Z,11.12
2023-05-14T01:40:52.468Z,11.10
2023-05-14T01:43:21.023Z,11.08
2023-05-14T01:45:48.868Z,11.06
2023-05-14T01:48:16.901Z,11.06
2023-05-14T01:50:44.888Z,11.05
2023-05-14T01:53:12.635Z,11.03
2023-05-14T01:55:40.374Z,11.00
2023-05-14T01:58:08.401Z,10.96
2023-05-14T02:00:36.381Z,10.93
2023-05-14T02:03:04.140Z,10.92
2023-05-14T02:05:32.303Z,10.92
2023-05-14T02:08:00.175Z,10.89
2023-05-14T02:10:27.942Z,10.86
2023-05-14T02:12:56.045Z,10.86
2023-05-14T02:15:23.791Z,10.85
2023-05-14T02:17:51.617Z,10.84
2023-05-14T02:20:19.545Z,10.83
2023-05-14T02:22:47.595Z,10.81
2023-05-14T02:25:15.456Z,10.81
2023-05-14T02:27:43.309Z,10.81
2023-05-14T02:30:11.792Z,10.82
2023-05-14T02:32:40.524Z,10.81
2023-05-14T02:35:08.578Z,10.80
2023-05-14T02:37:36.914Z,10.79
2023-05-14T02:40:05.303Z,10.78
2023-05-14T02:42:33.598Z,10.78
2023-05-14T02:45:01.409Z,10.77
2023-05-14T02:47:29.182Z,10.77
2023-05-14T02:49:56.997Z,10.75
2023-05-14T02:52:24.775Z,10.74
2023-05-14T02:54:52.788Z,10.73
2023-05-14T02:57:21.098Z,10.71
2023-05-14T02:59:48.976Z,10.69
2023-05-14T03:02:17.349Z,10.70
2023-05-14T03:04:46.770Z,10.70
2023-05-14T03:07:14.808Z,10.71
2023-05-14T03:09:42.494Z,10.72
2023-05-14T03:12:10.947Z,10.74
2023-05-14T03:14:38.777Z,10.75
2023-05-14T03:17:06.711Z,10.76
2023-05-14T03:19:34.714Z,10.78
2023-05-14T03:22:02.716Z,10.80
2023-05-14T03:24:30.418Z,10.82
2023-05-14T03:26:58.426Z,10.83
2023-05-14T03:29:26.111Z,10.84
2023-05-14T03:31:54.601Z,10.87
2023-05-14T03:34:22.509Z,10.89
2023-05-14T03:36:50.684Z,10.90
2023-05-14T03:39:19.840Z,10.91
2023-05-14T03:41:48.142Z,10.92
2023-05-14T03:44:16.484Z,10.94
2023-05-14T03:46:45.334Z,10.96
2023-05-14T03:49:13.418Z,11.00
2023-05-14T03:51:41.252Z,11.02
2023-05-14T03:54:10.085Z,11.04
2023-05-14T03:56:37.756Z,11.07
2023-05-14T03:59:05.836Z,11.10
2023-05-14T04:01:33.731Z,11.15
2023-05-14T04:04:01.739Z,11.20
2023-05-14T04:06:29.971Z,11.23
2023-05-14T04:08:57.722Z,11.24
2023-05-14T04:11:25.582Z,11.26
2023-05-14T04:13:53.365Z,11.30
2023-05-14T04:16:21.273Z,11.32
2023-05-14T04:18:49.651Z,11.34
2023-05-14T04:21:17.565Z,11.40
2023-05-14T04:23:45.527Z,11.46
2023-05-14T04:26:13.292Z,11.50
2023-05-14T04:28:41.375Z,11.55
2023-05-14T04:31:09.016Z,11.60
2023-05-14T04:33:36.794Z,11.64
2023-05-14T04:36:05.786Z,11.70
2023-05-14T04:38:33.492Z,11.78
2023-05-14T04:41:01.224Z,11.86
2023-05-14T04:43:29.361Z,11.97
2023-05-14T04:45:57.057Z,12.11
2023-05-14T04:48:25.401Z,12.26
2023-05-14T04:50:53.249Z,12.44
2023-05-14T04:53:21.269Z,12.62
2023-05-14T04:55:48.990Z,12.79
2023-05-14T04:58:16.844Z,12.94
2023-05-14T05:00:44.634Z,13.02
2023-05-14T05:03:12.712Z,13.15
2023-05-14T05:05:40.786Z,13.30
2023-05-14T05:08:08.613Z,13.46
2023-05-14T05:10:36.580Z,13.69
2023-05-14T05:13:04.218Z,13.94
2023-05-14T05:15:32.033Z,14.20
2023-05-14T05:17:59.994Z,14.42
2023-05-14T05:20:28.368Z,14.65
2023-05-14T05:22:56.293Z,14.75
2023-05-14T05:25:23.946Z,14.78
2023-05-14T05:27:51.664Z,14.81
2023-05-14T05:30:19.625Z,14.90
2023-05-14T05:32:47.635Z,14.93
2023-05-14T05:35:15.587Z,14.91
2023-05-14T05:37:45.404Z,14.95
2023-05-14T05:40:14.427Z,14.96
2023-05-14T05:42:42.343Z,14.88
2023-05-14T05:45:10.320Z,14.77
2023-05-14T05:47:38.120Z,14.72
2023-05-14T05:50:06.278Z,14.67
2023-05-14T05:52:34.481Z,14.65
2023-05-14T05:55:02.452Z,14.64
2023-05-14T05:57:30.112Z,14.64
2023-05-14T05:59:58.376Z,14.67
2023-05-14T06:02:26.206Z,14.71
2023-05-14T06:04:53.986Z,14.76
2023-05-14T06:07:21.949Z,14.86
2023-05-14T06:09:49.624Z,14.99
2023-05-14T06:12:17.586Z,15.15
2023-05-14T06:14:45.407Z,15.40
2023-05-14T06:17:13.005Z,15.72
2023-05-14T06:19:40.654Z,16.07
2023-05-14T06:22:08.328Z,16.39
2023-05-14T06:24:36.263Z,16.71
2023-05-14T06:27:04.271Z,17.01
2023-05-14T06:29:32.516Z,17.25
2023-05-14T06:32:04.385Z,17.48
2023-05-14T06:34:32.473Z,17.72
2023-05-14T06:37:02.853Z,17.96
2023-05-14T06:39:30.851Z,18.13
2023-05-14T06:41:58.667Z,18.27
2023-05-14T06:44:26.551Z,18.36
2023-05-14T06:46:54.295Z,18.48
2023-05-14T06:49:22.004Z,18.61
2023-05-14T06:52:04.160Z,18.71
2023-05-14T06:54:31.969Z,18.91
2023-05-14T06:56:59.681Z,19.10
2023-05-14T06:59:27.753Z,19.35
2023-05-14T07:01:55.758Z,19.62
2023-05-14T07:04:23.589Z,19.84
2023-05-14T07:06:51.491Z,19.97
2023-05-14T07:09:19.743Z,20.16
2023-05-14T07:11:47.451Z,20.37
2023-05-14T07:14:15.129Z,20.56
2023-05-14T07:16:43.227Z,20.67
2023-05-14T07:19:11.021Z,20.76
2023-05-14T07:21:38.776Z,20.84
2023-05-14T07:24:06.607Z,20.88
2023-05-14T07:26:34.385Z,20.96
2023-05-14T07:29:02.173Z,20.96
2023-05-14T07:31:30.166Z,20.91
2023-05-14T07:33:58.317Z,20.96
2023-05-14T07:36:25.988Z,20.94
2023-05-14T07:38:54.106Z,20.93
2023-05-14T07:41:21.858Z,20.96
2023-05-14T07:43:49.645Z,20.94
2023-05-14T07:46:17.844Z,20.93
2023-05-14T07:48:45.666Z,20.89
2023-05-14T07:51:13.425Z,20.82
2023-05-14T07:53:41.446Z,20.75
2023-05-14T07:56:09.263Z,20.70
2023-05-14T07:58:37.189Z,20.66
2023-05-14T08:01:07.164Z,20.68
2023-05-14T08:03:35.161Z,20.70
2023-05-14T08:06:04.228Z,20.78
2023-05-14T08:08:32.179Z,20.91
2023-05-14T08:11:00.236Z,21.04
2023-05-14T08:13:28.082Z,21.18
2023-05-14T08:15:56.153Z,21.22
2023-05-14T08:18:23.865Z,21.16
2023-05-14T08:20:52.078Z,21.11
2023-05-14T08:23:19.849Z,21.01
2023-05-14T08:25:47.608Z,20.87
2023-05-14T08:28:15.650Z,20.83
2023-05-14T08:30:43.305Z,20.79
2023-05-14T08:33:11.184Z,20.75
2023-05-14T08:35:39.450Z,20.75
2023-05-14T08:38:07.163Z,20.76
2023-05-14T08:40:34.985Z,20.79
2023-05-14T08:43:03.221Z,20.87
2023-05-14T08:45:34.523Z,20.95
2023-05-14T08:48:05.186Z,21.07
2023-05-14T08:50:33.847Z,21.27
2023-05-14T08:53:01.653Z,21.46
2023-05-14T08:55:29.883Z,21.61
2023-05-14T08:57:58.043Z,21.76
2023-05-14T09:00:26.648Z,21.90
2023-05-14T09:02:55.181Z,22.02
2023-05-14T09:05:23.600Z,22.10
2023-05-14T09:07:51.653Z,22.18
2023-05-14T09:10:21.392Z,22.17
2023-05-14T09:12:49.637Z,22.10
2023-05-14T09:15:17.793Z,21.96
2023-05-14T09:17:48.151Z,21.93
2023-05-14T09:20:16.455Z,21.89
2023-05-14T09:22:44.119Z,21.84
2023-05-14T09:25:14.790Z,21.82
2023-05-14T09:27:42.615Z,21.84
2023-05-14T09:30:11.674Z,21.87
2023-05-14T09:32:40.716Z,21.91
2023-05-14T09:35:19.316Z,21.93
2023-05-14T09:37:48.943Z,21.89
2023-05-14T09:40:18.210Z,21.86
2023-05-14T09:42:46.491Z,21.84
2023-05-14T09:45:18.428Z,21.82
2023-05-14T09:47:50.734Z,21.73
2023-05-14T09:50:19.071Z,21.66
2023-05-14T09:52:49.023Z,21.56
2023-05-14T09:55:18.331Z,21.46
2023-05-14T09:57:47.497Z,21.33
2023-05-14T10:00:16.178Z,21.23
2023-05-14T10:02:46.157Z,21.19
2023-05-14T10:05:15.901Z,21.05
2023-05-14T10:07:47.095Z,20.88
2023-05-14T10:10:22.006Z,20.75
2023-05-14T10:12:57.536Z,20.69
2023-05-14T10:15:40.169Z,20.67
2023-05-14T10:18:11.359Z,20.66
2023-05-14T10:20:41.019Z,20.63
2023-05-14T10:23:08.913Z,20.55
2023-05-14T10:25:37.770Z,20.55
2023-05-14T10:28:06.093Z,20.60
2023-05-14T10:30:33.844Z,20.65
2023-05-14T10:33:08.793Z,20.68
2023-05-14T10:36:06.285Z,20.67
2023-05-14T10:38:37.524Z,20.61
2023-05-14T10:41:07.213Z,20.57
2023-05-14T10:43:37.027Z,20.55
2023-05-14T10:46:05.006Z,20.51
2023-05-14T10:48:33.547Z,20.50
2023-05-14T10:51:02.403Z,20.44
2023-05-14T10:53:37.563Z,20.38
2023-05-14T10:56:09.203Z,20.32
2023-05-14T10:58:37.790Z,20.21
2023-05-14T11:01:06.686Z,20.06
2023-05-14T11:03:39.490Z,20.01
2023-05-14T11:06:07.777Z,20.01
2023-05-14T11:08:36.823Z,19.99
2023-05-14T11:11:05.239Z,19.98
2023-05-14T11:13:34.573Z,19.97
2023-05-14T11:16:15.080Z,19.91
2023-05-14T11:18:53.468Z,19.83
2023-05-14T11:21:21.619Z,19.77
2023-05-14T11:23:49.588Z,19.68
2023-05-14T11:26:18.302Z,19.59
2023-05-14T11:28:47.868Z,19.58
2023-05-14T11:31:15.984Z,19.60
2023-05-14T11:33:44.292Z,19.59
2023-05-14T11:36:12.559Z,19.53
2023-05-14T11:38:51.646Z,19.50
2023-05-14T11:41:21.625Z,19.51
2023-05-14T11:43:49.485Z,19.48
2023-05-14T11:46:18.708Z,19.41
2023-05-14T11:48:46.509Z,19.34
2023-05-14T11:51:14.972Z,19.25
2023-05-14T11:53:42.839Z,19.13
2023-05-14T11:56:11.352Z,19.02
2023-05-14T11:58:39.413Z,18.96
2023-05-14T12:01:07.087Z,18.85
2023-05-14T12:03:35.314Z,18.71
2023-05-14T12:06:07.409Z,18.62
2023-05-14T12:08:35.200Z,18.62
2023-05-14T12:11:03.548Z,18.61
2023-05-14T12:13:31.746Z,18.62
2023-05-14T12:16:00.949Z,18.55
2023-05-14T12:18:29.960Z,18.43
2023-05-14T12:21:04.882Z,18.35
2023-05-14T12:23:32.728Z,18.34
2023-05-14T12:26:06.525Z,18.34
2023-05-14T12:28:37.957Z,18.33
2023-05-14T12:31:06.503Z,18.29
2023-05-14T12:33:34.248Z,18.23
2023-05-14T12:36:17.589Z,18.23
2023-05-14T12:38:50.564Z,18.26
2023-05-14T12:41:18.456Z,18.30
2023-05-14T12:43:48.239Z,18.34
2023-05-14T12:46:17.107Z,18.37
2023-05-14T12:48:45.713Z,18.41
2023-05-14T12:51:13.500Z,18.51
2023-05-14T12:53:41.441Z,18.57
2023-05-14T12:56:09.488Z,18.62
2023-05-14T12:58:37.523Z,18.69
2023-05-14T13:01:05.553Z,18.74
2023-05-14T13:03:33.315Z,18.77
2023-05-14T13:06:01.535Z,18.77
2023-05-14T13:08:29.951Z,18.72
2023-05-14T13:10:57.691Z,18.64
2023-05-14T13:13:25.617Z,18.59
2023-05-14T13:15:53.670Z,18.54
2023-05-14T13:18:21.599Z,18.55
2023-05-14T13:20:49.608Z,18.56
2023-05-14T13:23:17.393Z,18.58
2023-05-14T13:25:45.778Z,18.58
2023-05-14T13:28:15.394Z,18.58
2023-05-14T13:31:02.734Z,18.57
2023-05-14T13:33:30.774Z,18.57
2023-05-14T13:35:58.928Z,18.59
2023-05-14T13:38:26.580Z,18.68
2023-05-14T13:40:54.433Z,18.81
2023-05-14T13:43:22.382Z,18.95
2023-05-14T13:45:51.050Z,19.07
2023-05-14T13:48:18.716Z,19.12
2023-05-14T13:50:46.662Z,19.11
2023-05-14T13:53:14.692Z,19.11
2023-05-14T13:55:42.384Z,19.06
2023-05-14T13:58:11.099Z,18.99
2023-05-14T14:00:39.193Z,18.92
2023-05-14T14:03:08.986Z,18.86
2023-05-14T14:05:37.358Z,18.81
2023-05-14T14:08:22.028Z,18.75
2023-05-14T14:10:52.183Z,18.68
2023-05-14T14:13:21.623Z,18.61
2023-05-14T14:15:50.244Z,18.58
2023-05-14T14:18:18.163Z,18.55
2023-05-14T14:20:46.051Z,18.53
2023-05-14T14:23:14.166Z,18.50
2023-05-14T14:25:42.078Z,18.46
2023-05-14T14:28:10.071Z,18.43
2023-05-14T14:30:38.263Z,18.41
2023-05-14T14:33:06.128Z,18.40
2023-05-14T14:35:35.403Z,18.38
2023-05-14T14:38:03.172Z,18.36
2023-05-14T14:40:32.948Z,18.34
2023-05-14T14:43:01.952Z,18.34
2023-05-14T14:45:29.826Z,18.36
2023-05-14T14:48:16.691Z,18.38
2023-05-14T14:50:44.512Z,18.41
2023-05-14T14:53:12.200Z,18.42
2023-05-14T14:55:40.249Z,18.45
2023-05-14T14:58:08.271Z,18.47
2023-05-14T15:00:36.013Z,18.46
2023-05-14T15:03:04.017Z,18.43
2023-05-14T15:05:31.730Z,18.41
2023-05-14T15:07:59.451Z,18.40
2023-05-14T15:10:31.145Z,18.38
2023-05-14T15:12:59.349Z,18.37
2023-05-14T15:15:27.246Z,18.38
2023-05-14T15:17:56.300Z,18.39
2023-05-14T15:20:24.255Z,18.40
2023-05-14T15:22:53.588Z,18.35
2023-05-14T15:25:22.955Z,18.27
2023-05-14T15:27:51.884Z,18.21
2023-05-14T15:30:19.759Z,18.18
2023-05-14T15:32:48.098Z,18.15
2023-05-14T15:35:15.923Z,18.12
2023-05-14T15:37:44.656Z,18.09
2023-05-14T15:40:12.606Z,18.08
2023-05-14T15:42:44.156Z,18.05
2023-05-14T15:45:12.594Z,18.02
2023-05-14T15:47:40.747Z,17.99
2023-05-14T15:50:09.130Z,17.95
2023-05-14T15:52:37.392Z,17.92
2023-05-14T15:55:06.062Z,17.90
2023-05-14T15:57:34.519Z,17.86
2023-05-14T16:00:08.495Z,17.82
2023-05-14T16:02:36.938Z,17.79
2023-05-14T16:05:05.612Z,17.75
2023-05-14T16:07:33.357Z,17.72
2023-05-14T16:10:01.217Z,17.69
2023-05-14T16:12:28.934Z,17.65
2023-05-14T16:14:57.646Z,17.62
2023-05-14T16:17:27.314Z,17.59
2023-05-14T16:19:56.427Z,17.56
2023-05-14T16:22:24.419Z,17.54
2023-05-14T16:24:52.388Z,17.53
2023-05-14T16:27:20.205Z,17.52
2023-05-14T16:29:48.130Z,17.51
2023-05-14T16:32:16.168Z,17.47
2023-05-14T16:34:50.093Z,17.45
2023-05-14T16:37:19.916Z,17.42
2023-05-14T16:39:48.778Z,17.38
2023-05-14T16:42:16.386Z,17.35
2023-05-14T16:44:44.343Z,17.32
2023-05-14T16:47:13.079Z,17.29
2023-05-14T16:49:40.816Z,17.26
2023-05-14T16:52:08.540Z,17.25
2023-05-14T16:54:37.276Z,17.24
2023-05-14T16:57:06.032Z,17.24
2023-05-14T16:59:33.733Z,17.21
2023-05-14T17:02:01.832Z,17.20
2023-05-14T17:04:29.760Z,17.19
2023-05-14T17:06:57.781Z,17.17
2023-05-14T17:09:25.676Z,17.17
2023-05-14T17:11:53.364Z,17.15
2023-05-14T17:14:21.710Z,17.15
2023-05-14T17:16:49.460Z,17.16
2023-05-14T17:19:17.552Z,17.14
2023-05-14T17:21:45.334Z,17.13
2023-05-14T17:24:13.203Z,17.11
2023-05-14T17:26:41.029Z,17.09
2023-05-14T17:29:08.851Z,17.06
2023-05-14T17:31:36.582Z,17.04
2023-05-14T17:34:04.952Z,16.99
2023-05-14T17:36:33.396Z,16.95
2023-05-14T17:39:01.673Z,16.92
2023-05-14T17:41:29.609Z,16.88
2023-05-14T17:43:57.340Z,16.84
2023-05-14T17:46:25.625Z,16.82
2023-05-14T17:48:53.361Z,16.80
2023-05-14T17:51:21.268Z,16.78
2023-05-14T17:53:48.978Z,16.77
2023-05-14T17:56:18.548Z,16.75
2023-05-14T17:58:46.774Z,16.73
2023-05-14T18:01:14.667Z,16.71
2023-05-14T18:03:43.165Z,16.69
2023-05-14T18:06:11.164Z,16.67
2023-05-14T18:08:38.850Z,16.65
2023-05-14T18:11:06.567Z,16.63
2023-05-14T18:13:34.227Z,16.61
2023-05-14T18:16:02.084Z,16.57
2023-05-14T18:18:30.614Z,16.56
2023-05-14T18:20:58.471Z,16.53
2023-05-14T18:23:26.638Z,16.51
2023-05-14T18:25:54.535Z,16.50
2023-05-14T18:28:22.518Z,16.47
2023-05-14T18:30:50.630Z,16.46
2023-05-14T18:33:18.407Z,16.44
2023-05-14T18:35:46.150Z,16.40
2023-05-14T18:38:14.174Z,16.38
2023-05-14T18:40:41.848Z,16.38
2023-05-14T18:43:11.718Z,16.37
2023-05-14T18:45:40.104Z,16.35
2023-05-14T18:48:08.070Z,16.35
2023-05-14T18:50:37.430Z,16.34
2023-05-14T18:53:06.690Z,16.32
2023-05-14T18:55:37.902Z,16.29
2023-05-14T18:58:05.578Z,16.25
2023-05-14T19:00:33.411Z,16.22
2023-05-14T19:03:01.298Z,16.20
2023-05-14T19:05:29.230Z,16.21
2023-05-14T19:07:57.122Z,16.22
2023-05-14T19:10:25.221Z,16.23
2023-05-14T19:12:52.989Z,16.24
2023-05-14T19:15:20.901Z,16.22
2023-05-14T19:17:49.405Z,16.20
2023-05-14T19:20:18.213Z,16.20
2023-05-14T19:22:46.316Z,16.19
2023-05-14T19:25:14.189Z,16.18
2023-05-14T19:27:42.343Z,16.18
2023-05-14T19:30:10.375Z,16.18
2023-05-14T19:32:38.240Z,16.19
2023-05-14T19:35:06.231Z,16.20
2023-05-14T19:37:33.980Z,16.20
2023-05-14T19:40:01.969Z,16.18
2023-05-14T19:42:30.584Z,16.19
2023-05-14T19:44:58.263Z,16.18
2023-05-14T19:47:26.120Z,16.18
2023-05-14T19:49:54.004Z,16.18
2023-05-14T19:52:21.664Z,16.19
2023-05-14T19:54:49.552Z,16.18
2023-05-14T19:57:17.682Z,16.19
2023-05-14T19:59:45.474Z,16.20
2023-05-14T20:02:18.370Z,16.20
2023-05-14T20:04:47.431Z,16.21
2023-05-14T20:07:15.574Z,16.18
2023-05-14T20:09:43.582Z,16.17
2023-05-14T20:12:12.925Z,16.14
2023-05-14T20:14:41.370Z,16.10
2023-05-14T20:17:09.546Z,16.09
2023-05-14T20:19:37.300Z,16.08
2023-05-14T20:22:05.293Z,16.08
2023-05-14T20:24:32.941Z,16.05
2023-05-14T20:27:00.926Z,16.03
2023-05-14T20:29:28.609Z,16.02
2023-05-14T20:31:56.943Z,15.99
2023-05-14T20:34:25.356Z,15.98
2023-05-14T20:36:53.575Z,15.97
2023-05-14T20:39:21.745Z,15.95
2023-05-14T20:41:49.818Z,15.93
2023-05-14T20:44:19.127Z,15.90
2023-05-14T20:46:48.880Z,15.87
2023-05-14T20:49:16.917Z,15.86
2023-05-14T20:51:44.706Z,15.85
2023-05-14T20:54:12.722Z,15.84
2023-05-14T20:56:40.438Z,15.82
2023-05-14T20:59:08.326Z,15.80
2023-05-14T21:01:36.391Z,15.78
2023-05-14T21:04:04.596Z,15.76
2023-05-14T21:06:32.453Z,15.74
2023-05-14T21:09:00.745Z,15.72
2023-05-14T21:11:28.783Z,15.71
2023-05-14T21:13:56.570Z,15.69
2023-05-14T21:16:24.453Z,15.68
2023-05-14T21:18:52.374Z,15.67
2023-05-14T21:21:20.557Z,15.66
2023-05-14T21:23:48.610Z,15.66
2023-05-14T21:26:16.320Z,15.65
2023-05-14T21:28:44.081Z,15.64
2023-05-14T21:31:11.758Z,15.64
2023-05-14T21:33:40.963Z,15.64
2023-05-14T21:36:09.217Z,15.65
2023-05-14T21:38:37.118Z,15.66
2023-05-14T21:41:05.170Z,15.66
2023-05-14T21:43:33.116Z,15.66
2023-05-14T21:46:00.905Z,15.67
2023-05-14T21:48:28.788Z,15.67
2023-05-14T21:50:57.485Z,15.66
2023-05-14T21:53:25.416Z,15.65
2023-05-14T21:55:53.818Z,15.65
2023-05-14T21:58:21.623Z,15.64
2023-05-14T22:00:49.630Z,15.64
2023-05-14T22:03:17.649Z,15.63
2023-05-14T22:05:46.063Z,15.62
2023-05-14T22:08:13.818Z,15.62
2023-05-14T22:10:42.148Z,15.61
2023-05-14T22:13:10.056Z,15.61
2023-05-14T22:15:37.947Z,15.60
2023-05-14T22:18:06.978Z,15.60
2023-05-14T22:20:34.934Z,15.61
2023-05-14T22:23:03.135Z,15.62
2023-05-14T22:25:30.912Z,15.62
2023-05-14T22:27:58.944Z,15.63
2023-05-14T22:30:26.894Z,15.65
2023-05-14T22:32:54.670Z,15.66
2023-05-14T22:35:22.912Z,15.67
2023-05-14T22:37:50.727Z,15.68
2023-05-14T22:40:18.580Z,15.69
2023-05-14T22:42:46.743Z,15.70
2023-05-14T22:45:14.907Z,15.71
2023-05-14T22:47:42.660Z,15.73
2023-05-14T22:50:11.737Z,15.76
2023-05-14T22:52:40.175Z,15.78
2023-05-14T22:55:08.620Z,15.79
2023-05-14T22:57:36.420Z,15.81
2023-05-14T23:00:04.948Z,15.83
2023-05-14T23:02:32.668Z,15.85
2023-05-14T23:05:00.694Z,15.86
2023-05-14T23:07:28.794Z,15.88
2023-05-14T23:09:56.812Z,15.89
2023-05-14T23:12:24.675Z,15.89
2023-05-14T23:14:52.830Z,15.88
2023-05-14T23:17:20.689Z,15.87
2023-05-14T23:19:48.610Z,15.86
2023-05-14T23:22:16.370Z,15.86
2023-05-14T23:24:45.043Z,15.86
2023-05-14T23:27:13.189Z,15.85
2023-05-14T23:29:41.056Z,15.85
2023-05-14T23:32:09.117Z,15.85
2023-05-14T23:34:37.154Z,15.84
2023-05-14T23:37:04.959Z,15.84
2023-05-14T23:39:32.871Z,15.82
2023-05-14T23:42:01.190Z,15.81
2023-05-14T23:44:29.047Z,15.79
2023-05-14T23:46:56.703Z,15.78
2023-05-14T23:49:24.559Z,15.78
2023-05-14T23:51:52.402Z,15.77
2023-05-14T23:54:20.595Z,15.77
2023-05-14T23:56:48.497Z,15.77
2023-05-14T23:59:16.603Z,15.77
